createdAt,value
2023-05-12T00:00:15.116Z,7.63
2023-05-12T00:02:44.987Z,7.18
2023-05-12T00:05:12.700Z,7.43
2023-05-12T00:07:40.221Z,7.13
2023-05-12T00:10:08.242Z,7.25
2023-05-12T00:12:35.881Z,6.35
2023-05-12T00:15:03.746Z,7.38
2023-05-12T00:17:31.697Z,6.57
2023-05-12T00:19:59.243Z,6.75
2023-05-12T00:22:26.925Z,7.28
2023-05-12T00:24:54.546Z,7.85
2023-05-12T00:27:22.128Z,7.85
2023-05-12T00:29:49.818Z,7.97
2023-05-12T00:32:17.329Z,7.95
2023-05-12T00:34:44.928Z,9.00
2023-05-12T00:37:12.589Z,7.72
2023-05-12T00:39:40.181Z,9.15
2023-05-12T00:42:08.186Z,8.73
2023-05-12T00:44:36.624Z,9.35
2023-05-12T00:47:05.906Z,9.23
2023-05-12T00:49:33.576Z,10.02
2023-05-12T00:52:03.350Z,8.65
2023-05-12T00:54:31.564Z,8.50
2023-05-12T00:56:59.597Z,8.45
2023-05-12T00:59:29.674Z,8.70
2023-05-12T01:01:57.673Z,8.13
2023-05-12T01:04:26.337Z,8.73
2023-05-12T01:06:59.868Z,8.65
2023-05-12T01:09:27.677Z,8.07
2023-05-12T01:11:56.642Z,8.10
2023-05-12T01:14:24.276Z,7.57
2023-05-12T01:16:58.660Z,8.20
2023-05-12T01:19:47.342Z,8.25
2023-05-12T01:22:17.515Z,8.18
2023-05-12T01:24:52.600Z,8.13
2023-05-12T01:27:23.605Z,7.88
2023-05-12T01:29:52.906Z,7.90
2023-05-12T01:32:22.162Z,8.20
2023-05-12T01:34:50.686Z,8.25
2023-05-12T01:37:19.272Z,8.15
2023-05-12T01:39:47.763Z,8.32
2023-05-12T01:42:19.798Z,8.45
2023-05-12T01:44:47.923Z,7.95
2023-05-12T01:47:15.990Z,8.05
2023-05-12T01:49:49.509Z,7.30
2023-05-12T01:52:17.709Z,6.93
2023-05-12T01:54:45.397Z,6.53
2023-05-12T01:57:13.806Z,6.10
2023-05-12T01:59:41.891Z,5.40
2023-05-12T02:02:09.533Z,6.13
2023-05-12T02:04:37.615Z,6.20
2023-05-12T02:07:05.297Z,6.43
2023-05-12T02:09:33.245Z,6.40
2023-05-12T02:12:04.306Z,6.00
2023-05-12T02:14:31.958Z,5.47
2023-05-12T02:16:59.698Z,5.50
2023-05-12T02:19:28.753Z,5.45
2023-05-12T02:21:59.795Z,4.78
2023-05-12T02:24:27.581Z,4.53
2023-05-12T02:26:57.445Z,4.05
2023-05-12T02:29:24.992Z,4.68
2023-05-12T02:31:52.756Z,4.45
2023-05-12T02:34:20.846Z,4.43
2023-05-12T02:36:48.404Z,3.95
2023-05-12T02:39:16.073Z,3.97
2023-05-12T02:41:43.712Z,4.47
2023-05-12T02:44:11.648Z,4.68
2023-05-12T02:46:39.588Z,4.82
2023-05-12T02:49:08.617Z,5.63
2023-05-12T02:51:36.180Z,5.88
2023-05-12T02:54:03.730Z,6.28
2023-05-12T02:56:33.827Z,6.53
2023-05-12T02:59:01.594Z,6.78
2023-05-12T03:01:29.162Z,6.72
2023-05-12T03:03:56.852Z,7.95
2023-05-12T03:06:24.650Z,8.43
2023-05-12T03:08:52.439Z,9.00
2023-05-12T03:11:20.017Z,11.05
2023-05-12T03:13:47.918Z,11.32
2023-05-12T03:16:18.939Z,11.15
2023-05-12T03:18:47.623Z,12.18
2023-05-12T03:21:15.191Z,13.15
2023-05-12T03:23:43.300Z,13.77
2023-05-12T03:26:12.308Z,15.45
2023-05-12T03:28:40.033Z,13.30
2023-05-12T03:31:07.696Z,14.35
2023-05-12T03:33:35.282Z,14.98
2023-05-12T03:36:03.206Z,15.85
2023-05-12T03:38:31.291Z,17.92
2023-05-12T03:41:08.269Z,17.73
2023-05-12T03:43:36.674Z,18.10
2023-05-12T03:46:04.596Z,18.67
2023-05-12T03:48:32.390Z,19.00
2023-05-12T03:51:00.108Z,19.55
2023-05-12T03:53:29.017Z,17.23
2023-05-12T03:55:58.084Z,17.75
2023-05-12T03:58:26.780Z,19.70
2023-05-12T04:00:57.409Z,19.08
2023-05-12T04:03:24.992Z,19.80
2023-05-12T04:06:01.915Z,22.45
2023-05-12T04:08:30.577Z,21.40
2023-05-12T04:11:01.055Z,20.88
2023-05-12T04:13:31.873Z,21.95
2023-05-12T04:16:00.767Z,22.07
2023-05-12T04:18:28.931Z,25.25
2023-05-12T04:20:56.866Z,24.38
2023-05-12T04:23:24.983Z,23.55
2023-05-12T04:25:52.623Z,24.27
2023-05-12T04:28:20.722Z,22.75
2023-05-12T04:30:48.656Z,24.02
2023-05-12T04:33:16.267Z,26.20
2023-05-12T04:35:44.471Z,25.25
2023-05-12T04:38:13.796Z,24.08
2023-05-12T04:40:41.923Z,25.52
2023-05-12T04:43:59.935Z,24.73
2023-05-12T04:45:59.838Z,22.83
2023-05-12T04:48:31.744Z,24.47
2023-05-12T04:51:00.535Z,23.05
2023-05-12T04:53:28.259Z,24.35
2023-05-12T04:55:56.726Z,24.15
2023-05-12T04:58:25.222Z,24.75
2023-05-12T05:00:53.947Z,24.55
2023-05-12T05:03:21.840Z,24.58
2023-05-12T05:05:49.817Z,23.83
2023-05-12T05:08:18.465Z,24.52
2023-05-12T05:10:46.839Z,24.48
2023-05-12T05:13:16.468Z,22.67
2023-05-12T05:15:52.365Z,23.95
2023-05-12T05:18:23.834Z,24.10
2023-05-12T05:20:57.856Z,23.30
2023-05-12T05:23:26.978Z,24.00
2023-05-12T05:25:55.429Z,23.63
2023-05-12T05:28:23.126Z,22.00
2023-05-12T05:30:50.789Z,22.92
2023-05-12T05:33:18.415Z,22.98
2023-05-12T05:35:48.035Z,22.15
2023-05-12T05:38:15.853Z,21.77
2023-05-12T05:40:53.151Z,21.15
2023-05-12T05:43:22.150Z,19.92
2023-05-12T05:45:50.488Z,17.85
2023-05-12T05:48:19.201Z,19.05
2023-05-12T05:50:48.582Z,18.83
2023-05-12T05:53:18.397Z,19.23
2023-05-12T05:55:48.793Z,19.05
2023-05-12T05:58:19.338Z,20.13
2023-05-12T06:00:50.560Z,20.88
2023-05-12T06:03:19.302Z,21.05
2023-05-12T06:05:47.325Z,19.00
2023-05-12T06:08:15.239Z,18.85
2023-05-12T06:10:42.782Z,19.73
2023-05-12T06:13:10.751Z,20.73
2023-05-12T06:15:39.071Z,19.70
2023-05-12T06:18:06.822Z,18.90
2023-05-12T06:20:34.530Z,19.42
2023-05-12T06:23:02.669Z,17.88
2023-05-12T06:25:30.369Z,18.15
2023-05-12T06:27:57.936Z,16.85
2023-05-12T06:30:25.659Z,18.10
2023-05-12T06:32:56.184Z,17.17
2023-05-12T06:35:23.897Z,17.15
2023-05-12T06:37:51.606Z,16.17
2023-05-12T06:40:19.252Z,16.70
2023-05-12T06:42:47.639Z,15.13
2023-05-12T06:45:21.157Z,15.20
2023-05-12T06:47:50.310Z,14.30
2023-05-12T06:50:19.424Z,14.07
2023-05-12T06:52:51.326Z,12.75
2023-05-12T06:55:21.188Z,12.00
2023-05-12T06:57:55.773Z,11.32
2023-05-12T07:00:27.010Z,11.88
2023-05-12T07:02:54.760Z,10.48
2023-05-12T07:05:22.762Z,9.45
2023-05-12T07:07:50.698Z,9.93
2023-05-12T07:10:20.904Z,8.48
2023-05-12T07:12:48.536Z,8.20
2023-05-12T07:15:16.119Z,7.30
2023-05-12T07:17:43.707Z,7.25
2023-05-12T07:20:11.740Z,6.70
2023-05-12T07:22:39.359Z,7.07
2023-05-12T07:25:08.096Z,6.53
2023-05-12T07:27:35.766Z,6.47
2023-05-12T07:30:05.710Z,5.38
2023-05-12T07:32:34.088Z,4.82
2023-05-12T07:35:02.066Z,4.47
2023-05-12T07:37:30.017Z,4.68
2023-05-12T07:39:57.621Z,3.78
2023-05-12T07:42:25.276Z,3.50
2023-05-12T07:44:52.768Z,3.53
2023-05-12T07:47:20.342Z,3.30
2023-05-12T07:49:47.916Z,3.63
2023-05-12T07:52:15.506Z,3.60
2023-05-12T07:54:43.173Z,3.38
2023-05-12T07:57:11.122Z,3.60
2023-05-12T07:59:38.676Z,3.42
2023-05-12T08:02:07.356Z,3.45
2023-05-12T08:04:34.955Z,3.25
2023-05-12T08:07:02.647Z,3.78
2023-05-12T08:09:30.258Z,3.67
2023-05-12T08:11:57.787Z,4.28
2023-05-12T08:14:25.760Z,4.28
2023-05-12T08:16:53.400Z,4.15
2023-05-12T08:19:21.061Z,4.47
2023-05-12T08:21:48.670Z,4.47
2023-05-12T08:24:16.251Z,4.35
2023-05-12T08:26:43.857Z,3.80
2023-05-12T08:29:11.364Z,3.88
2023-05-12T08:31:39.256Z,3.50
2023-05-12T08:34:10.805Z,3.80
2023-05-12T08:36:39.881Z,3.50
2023-05-12T08:39:10.149Z,3.67
2023-05-12T08:42:17.454Z,3.97
2023-05-12T08:44:46.501Z,3.95
2023-05-12T08:47:18.695Z,4.40
2023-05-12T08:50:00.017Z,4.30
2023-05-12T08:52:31.715Z,4.50
2023-05-12T08:55:00.953Z,4.20
2023-05-12T08:57:30.907Z,3.83
2023-05-12T09:00:01.492Z,3.28
2023-05-12T09:02:44.651Z,3.88
2023-05-12T09:05:18.887Z,3.60
2023-05-12T09:07:49.769Z,2.45
2023-05-12T09:10:32.685Z,2.97
2023-05-12T09:13:16.324Z,3.33
2023-05-12T09:15:48.361Z,2.60
2023-05-12T09:18:16.102Z,2.75
2023-05-12T09:20:43.814Z,2.72
2023-05-12T09:23:14.876Z,2.22
2023-05-12T09:25:42.763Z,2.70
2023-05-12T09:28:10.722Z,2.67
2023-05-12T09:30:42.192Z,2.45
2023-05-12T09:35:45.268Z,2.50
2023-05-12T09:38:14.753Z,2.25
2023-05-12T09:40:43.393Z,2.20
2023-05-12T09:43:13.634Z,2.28
2023-05-12T09:45:44.194Z,2.10
2023-05-12T09:48:13.780Z,2.22
2023-05-12T09:50:51.157Z,2.35
2023-05-12T09:53:20.420Z,2.45
2023-05-12T09:55:49.026Z,2.25
2023-05-12T09:58:19.358Z,2.30
2023-05-12T10:03:18.739Z,2.13
2023-05-12T10:05:57.726Z,2.50
2023-05-12T10:08:32.131Z,2.30
2023-05-12T10:11:05.480Z,2.10
2023-05-12T10:13:34.648Z,2.45
2023-05-12T10:16:03.381Z,2.10
2023-05-12T10:18:34.479Z,2.42
2023-05-12T10:21:03.639Z,2.30
2023-05-12T10:23:31.824Z,2.25
2023-05-12T10:26:02.442Z,2.00
2023-05-12T10:28:30.782Z,2.30
2023-05-12T10:30:59.367Z,2.40
2023-05-12T10:33:27.697Z,2.42
2023-05-12T10:35:55.859Z,2.40
2023-05-12T10:38:23.678Z,2.58
2023-05-12T10:41:02.034Z,2.28
2023-05-12T10:43:45.507Z,2.20
2023-05-12T10:46:12.979Z,2.38
2023-05-12T10:49:12.522Z,2.72
2023-05-12T10:51:43.093Z,2.38
2023-05-12T10:54:19.910Z,2.10
2023-05-12T10:56:48.726Z,2.40
2023-05-12T10:59:25.449Z,2.50
2023-05-12T11:02:04.940Z,2.70
2023-05-12T11:04:43.705Z,2.13
2023-05-12T11:07:16.506Z,2.75
2023-05-12T11:09:57.552Z,2.60
2023-05-12T11:12:32.683Z,2.83
2023-05-12T11:15:04.568Z,2.08
2023-05-12T11:20:01.499Z,2.10
2023-05-12T11:22:29.475Z,2.22
2023-05-12T11:24:57.145Z,2.83
2023-05-12T11:27:24.748Z,2.50
2023-05-12T11:30:01.743Z,2.53
2023-05-12T11:32:30.301Z,3.00
2023-05-12T11:35:15.909Z,2.40
2023-05-12T11:37:46.453Z,2.72
2023-05-12T11:40:22.290Z,2.40
2023-05-12T11:42:53.986Z,2.90
2023-05-12T11:45:30.399Z,2.63
2023-05-12T11:48:12.784Z,3.25
2023-05-12T11:50:49.470Z,2.65
2023-05-12T11:53:19.123Z,2.83
2023-05-12T11:55:56.314Z,3.00
2023-05-12T11:58:29.892Z,3.05
2023-05-12T12:01:10.410Z,3.42
2023-05-12T12:03:48.724Z,2.63
2023-05-12T12:06:17.820Z,3.15
2023-05-12T12:09:00.127Z,2.70
2023-05-12T12:11:30.498Z,2.38
2023-05-12T12:13:58.118Z,2.80
2023-05-12T12:16:28.199Z,2.80
2023-05-12T12:18:56.802Z,3.33
2023-05-12T12:21:25.514Z,2.85
2023-05-12T12:23:53.237Z,2.90
2023-05-12T12:26:21.676Z,2.88
2023-05-12T12:28:49.852Z,2.42
2023-05-12T12:31:17.996Z,2.88
2023-05-12T12:33:45.762Z,2.75
2023-05-12T12:36:13.472Z,2.50
2023-05-12T12:38:41.234Z,2.50
2023-05-12T12:41:09.338Z,2.80
2023-05-12T12:43:36.936Z,2.63
2023-05-12T12:46:04.857Z,2.70
2023-05-12T12:48:33.479Z,3.15
2023-05-12T12:51:01.420Z,3.03
2023-05-12T12:53:29.055Z,3.40
2023-05-12T12:55:56.691Z,2.85
2023-05-12T12:58:24.356Z,2.80
2023-05-12T13:00:52.276Z,2.97
2023-05-12T13:03:20.498Z,2.70
2023-05-12T13:05:48.226Z,2.70
2023-05-12T13:08:17.446Z,2.58
2023-05-12T13:10:45.489Z,2.80
2023-05-12T13:13:13.053Z,2.50
2023-05-12T13:15:42.132Z,2.47
2023-05-12T13:18:09.790Z,2.30
2023-05-12T13:20:37.524Z,2.30
2023-05-12T13:23:05.278Z,2.80
2023-05-12T13:25:33.071Z,2.60
2023-05-12T13:28:00.659Z,2.45
2023-05-12T13:30:28.455Z,2.50
2023-05-12T13:32:56.147Z,2.90
2023-05-12T13:35:23.885Z,2.22
2023-05-12T13:37:51.638Z,2.83
2023-05-12T13:40:19.321Z,2.38
2023-05-12T13:42:46.950Z,2.53
2023-05-12T13:45:14.564Z,2.65
2023-05-12T13:47:42.140Z,2.17
2023-05-12T13:50:09.994Z,2.38
2023-05-12T13:52:37.607Z,2.50
2023-05-12T13:55:05.809Z,2.95
2023-05-12T13:57:33.766Z,2.20
2023-05-12T14:00:02.007Z,2.75
2023-05-12T14:02:30.251Z,2.90
2023-05-12T14:04:57.941Z,2.65
2023-05-12T14:07:25.602Z,2.45
2023-05-12T14:09:53.158Z,2.65
2023-05-12T14:12:20.743Z,3.03
2023-05-12T14:14:50.108Z,2.67
2023-05-12T14:17:18.661Z,2.90
2023-05-12T14:19:46.257Z,2.78
2023-05-12T14:22:25.667Z,2.88
2023-05-12T14:24:55.696Z,2.67
2023-05-12T14:27:24.043Z,2.60
2023-05-12T14:29:51.601Z,2.60
2023-05-12T14:32:19.254Z,2.92
2023-05-12T14:34:46.796Z,2.63
2023-05-12T14:37:14.361Z,3.25
2023-05-12T14:39:41.888Z,2.80
2023-05-12T14:42:09.414Z,2.65
2023-05-12T14:44:37.430Z,3.10
2023-05-12T14:47:06.914Z,3.00
2023-05-12T14:49:35.791Z,2.97
2023-05-12T14:52:03.703Z,2.83
2023-05-12T14:54:33.501Z,2.70
2023-05-12T14:57:01.046Z,2.97
2023-05-12T14:59:32.081Z,2.70
2023-05-12T15:01:59.815Z,2.92
2023-05-12T15:04:27.554Z,3.08
2023-05-12T15:06:55.075Z,3.35
2023-05-12T15:09:22.747Z,3.10
2023-05-12T15:11:51.500Z,3.13
2023-05-12T15:14:19.184Z,2.80
2023-05-12T15:16:46.857Z,3.30
2023-05-12T15:19:15.427Z,3.08
2023-05-12T15:21:43.482Z,2.75
2023-05-12T15:24:11.064Z,3.03
2023-05-12T15:26:40.520Z,3.30
2023-05-12T15:29:08.303Z,3.25
2023-05-12T15:31:36.003Z,3.20
2023-05-12T15:34:03.841Z,3.25
2023-05-12T15:36:32.285Z,3.40
2023-05-12T15:39:00.128Z,3.45
2023-05-12T15:41:27.792Z,2.22
2023-05-12T15:43:55.335Z,2.80
2023-05-12T15:46:23.309Z,2.78
2023-05-12T15:48:51.175Z,3.25
2023-05-12T15:51:18.759Z,2.67
2023-05-12T15:53:46.305Z,2.88
2023-05-12T15:56:13.843Z,3.30
2023-05-12T15:58:41.423Z,3.70
2023-05-12T16:01:09.035Z,3.63
2023-05-12T16:03:36.721Z,3.45
2023-05-12T16:06:04.983Z,3.50
2023-05-12T16:08:34.095Z,3.28
2023-05-12T16:11:01.731Z,3.05
2023-05-12T16:13:29.306Z,2.70
2023-05-12T16:15:57.062Z,3.00
2023-05-12T16:18:24.642Z,3.00
2023-05-12T16:20:52.277Z,3.20
2023-05-12T16:23:19.904Z,2.58
2023-05-12T16:25:47.480Z,2.60
2023-05-12T16:28:14.994Z,2.50
2023-05-12T16:30:42.719Z,2.40
2023-05-12T16:33:10.380Z,2.53
2023-05-12T16:35:38.270Z,2.35
2023-05-12T16:38:05.794Z,1.98
2023-05-12T16:40:33.287Z,2.17
2023-05-12T16:43:00.814Z,1.95
2023-05-12T16:45:28.456Z,2.10
2023-05-12T16:47:56.104Z,1.92
2023-05-12T16:50:23.655Z,2.72
2023-05-12T16:52:52.117Z,2.60
2023-05-12T16:55:20.088Z,2.25
2023-05-12T16:57:47.729Z,2.25
2023-05-12T17:00:16.124Z,2.30
2023-05-12T17:02:43.835Z,2.60
2023-05-12T17:05:11.534Z,2.75
2023-05-12T17:07:39.093Z,2.83
2023-05-12T17:10:07.459Z,2.63
2023-05-12T17:12:34.968Z,13.98
2023-05-12T17:15:08.181Z,5.18
2023-05-12T17:17:36.336Z,3.65
2023-05-12T17:20:04.415Z,3.25
2023-05-12T17:22:33.563Z,2.80
2023-05-12T17:25:01.324Z,3.08
2023-05-12T17:27:28.991Z,3.63
2023-05-12T17:29:57.566Z,3.10
2023-05-12T17:32:25.915Z,3.65
2023-05-12T17:34:53.510Z,3.50
2023-05-12T17:37:21.125Z,3.47
2023-05-12T17:39:50.404Z,3.60
2023-05-12T17:42:18.551Z,3.80
2023-05-12T17:44:46.219Z,3.40
2023-05-12T17:47:14.192Z,3.53
2023-05-12T17:49:42.408Z,3.35
2023-05-12T17:52:10.192Z,3.50
2023-05-12T17:54:37.716Z,4.00
2023-05-12T17:57:05.756Z,3.60
2023-05-12T17:59:33.348Z,3.83
2023-05-12T18:02:01.261Z,4.28
2023-05-12T18:04:28.845Z,4.28
2023-05-12T18:06:57.203Z,3.88
2023-05-12T18:09:25.213Z,4.03
2023-05-12T18:11:53.502Z,3.80
2023-05-12T18:14:21.812Z,4.88
2023-05-12T18:16:49.357Z,4.90
2023-05-12T18:19:17.395Z,5.18
2023-05-12T18:21:45.021Z,5.82
2023-05-12T18:24:12.613Z,7.20
2023-05-12T18:26:40.707Z,6.68
2023-05-12T18:29:08.262Z,4.90
2023-05-12T18:31:36.417Z,5.45
2023-05-12T18:34:04.006Z,5.03
2023-05-12T18:36:31.554Z,5.65
2023-05-12T18:38:59.157Z,9.73
2023-05-12T18:41:27.721Z,23.70
2023-05-12T18:43:55.617Z,9.43
2023-05-12T18:46:23.184Z,6.25
2023-05-12T18:48:51.032Z,6.72
2023-05-12T18:51:18.593Z,5.97
2023-05-12T18:53:46.410Z,6.00
2023-05-12T18:56:14.220Z,6.00
2023-05-12T18:58:41.888Z,5.90
2023-05-12T19:01:09.543Z,5.55
2023-05-12T19:03:37.310Z,5.88
2023-05-12T19:06:04.979Z,8.57
2023-05-12T19:08:32.630Z,5.97
2023-05-12T19:11:00.254Z,5.78
2023-05-12T19:13:27.758Z,5.85
2023-05-12T19:15:55.315Z,5.97
2023-05-12T19:18:23.251Z,5.72
2023-05-12T19:20:50.873Z,5.82
2023-05-12T19:23:18.451Z,6.50
2023-05-12T19:25:46.054Z,6.18
2023-05-12T19:28:13.678Z,6.13
2023-05-12T19:30:41.328Z,7.22
2023-05-12T19:33:08.985Z,7.00
2023-05-12T19:35:36.706Z,6.88
2023-05-12T19:38:04.362Z,6.43
2023-05-12T19:40:32.330Z,6.93
2023-05-12T19:43:00.286Z,7.32
2023-05-12T19:45:28.972Z,7.03
2023-05-12T19:47:57.125Z,7.00
2023-05-12T19:50:24.940Z,6.95
2023-05-12T19:52:52.469Z,7.38
2023-05-12T19:55:20.769Z,7.68
2023-05-12T19:57:48.564Z,7.78
2023-05-12T20:00:16.528Z,7.65
2023-05-12T20:02:44.247Z,7.35
2023-05-12T20:05:14.058Z,10.10
2023-05-12T20:07:41.794Z,13.00
2023-05-12T20:10:09.906Z,10.57
2023-05-12T20:12:37.951Z,9.68
2023-05-12T20:15:06.839Z,10.07
2023-05-12T20:17:34.499Z,10.20
2023-05-12T20:20:04.110Z,19.52
2023-05-12T20:22:31.740Z,9.60
2023-05-12T20:25:04.160Z,8.05
2023-05-12T20:27:32.780Z,7.95
2023-05-12T20:30:00.909Z,8.57
2023-05-12T20:32:28.477Z,9.23
2023-05-12T20:34:56.088Z,8.52
2023-05-12T20:37:23.801Z,8.27
2023-05-12T20:39:51.406Z,8.75
2023-05-12T20:42:18.956Z,6.95
2023-05-12T20:44:46.484Z,8.40
2023-05-12T20:47:14.190Z,11.48
2023-05-12T20:49:42.176Z,17.80
2023-05-12T20:52:09.713Z,16.08
2023-05-12T20:54:37.296Z,14.25
2023-05-12T20:57:04.949Z,10.40
2023-05-12T20:59:32.589Z,11.30
2023-05-12T21:02:00.203Z,9.55
2023-05-12T21:04:27.739Z,8.98
2023-05-12T21:06:55.256Z,8.68
2023-05-12T21:09:22.866Z,8.07
2023-05-12T21:11:50.509Z,7.10
2023-05-12T21:14:18.118Z,7.63
2023-05-12T21:16:45.741Z,7.00
2023-05-12T21:19:13.395Z,6.75
2023-05-12T21:21:41.116Z,6.70
2023-05-12T21:24:08.746Z,6.70
2023-05-12T21:26:36.338Z,6.38
2023-05-12T21:29:03.987Z,6.75
2023-05-12T21:31:31.893Z,6.10
2023-05-12T21:33:59.448Z,6.10
2023-05-12T21:36:26.998Z,6.57
2023-05-12T21:38:54.664Z,5.43
2023-05-12T21:41:22.376Z,6.30
2023-05-12T21:43:49.923Z,5.72
2023-05-12T21:46:17.485Z,5.82
2023-05-12T21:48:45.159Z,5.70
2023-05-12T21:51:12.985Z,5.72
2023-05-12T21:53:40.518Z,5.85
2023-05-12T21:56:08.061Z,6.00
2023-05-12T21:58:36.972Z,5.78
2023-05-12T22:01:04.643Z,5.72
2023-05-12T22:03:32.934Z,6.05
2023-05-12T22:06:00.658Z,6.13
2023-05-12T22:08:28.292Z,6.18
2023-05-12T22:10:56.450Z,6.72
2023-05-12T22:13:23.961Z,7.10
2023-05-12T22:15:51.644Z,7.32
2023-05-12T22:18:19.558Z,6.97
2023-05-12T22:20:47.069Z,7.18
2023-05-12T22:23:14.716Z,6.68
2023-05-12T22:25:42.258Z,7.32
2023-05-12T22:28:09.819Z,6.93
2023-05-12T22:30:37.565Z,7.32
2023-05-12T22:33:05.315Z,6.78
2023-05-12T22:35:32.888Z,6.43
2023-05-12T22:38:00.384Z,6.90
2023-05-12T22:40:27.951Z,7.18
2023-05-12T22:42:55.552Z,7.85
2023-05-12T22:45:23.062Z,7.30
2023-05-12T22:47:50.661Z,7.53
2023-05-12T22:50:18.788Z,7.70
2023-05-12T22:52:46.705Z,7.35
2023-05-12T22:55:14.353Z,7.90
2023-05-12T22:57:43.726Z,6.75
2023-05-12T23:00:12.180Z,7.20
2023-05-12T23:02:39.893Z,7.25
2023-05-12T23:05:07.923Z,7.40
2023-05-12T23:07:36.141Z,6.63
2023-05-12T23:10:04.092Z,7.15
2023-05-12T23:12:31.808Z,6.50
2023-05-12T23:14:59.351Z,5.93
2023-05-12T23:17:26.935Z,6.53
2023-05-12T23:19:54.565Z,6.40
2023-05-12T23:22:22.126Z,5.75
2023-05-12T23:24:51.323Z,5.82
2023-05-12T23:27:19.404Z,5.90
2023-05-12T23:29:47.032Z,6.13
2023-05-12T23:32:14.745Z,5.15
2023-05-12T23:34:42.888Z,6.10
2023-05-12T23:37:10.519Z,5.60
2023-05-12T23:39:38.121Z,5.97
2023-05-12T23:42:06.122Z,5.43
2023-05-12T23:44:33.715Z,6.05
2023-05-12T23:47:01.256Z,6.07
2023-05-12T23:49:29.163Z,5.75
2023-05-12T23:51:57.556Z,5.47
2023-05-12T23:54:28.854Z,5.88
2023-05-12T23:56:58.543Z,6.93
2023-05-12T23:59:26.259Z,5.55
